sensor_id;sensor_type;location;lat;lon;timestamp;P1;P2;P0
77365;PMS5003;66430;50.182;11.704;2023-07-09T00:00:47;20;18;
77365;PMS5003;66430;50.182;11.704;2023-07-09T00:03:12;24;23;
77365;PMS5003;66430;50.182;11.704;2023-07-09T00:05:37;19;19;
77365;PMS5003;66430;50.182;11.704;2023-07-09T00:08:03;23;20;
77365;PMS5003;66430;50.182;11.704;2023-07-09T00:10:28;22;20;
77365;PMS5003;66430;50.182;11.704;2023-07-09T00:12:53;19;19;
77365;PMS5003;66430;50.182;11.704;2023-07-09T00:15:19;25;25;
77365;PMS5003;66430;50.182;11.704;2023-07-09T00:17:44;20;19;
77365;PMS5003;66430;50.182;11.704;2023-07-09T00:20:10;23;20;
77365;PMS5003;66430;50.182;11.704;2023-07-09T00:22:34;18;18;
77365;PMS5003;66430;50.182;11.704;2023-07-09T00:24:59;20;20;
77365;PMS5003;66430;50.182;11.704;2023-07-09T00:27:27;25;23;
77365;PMS5003;66430;50.182;11.704;2023-07-09T00:29:49;22;22;
77365;PMS5003;66430;50.182;11.704;2023-07-09T00:32:15;21;19;
77365;PMS5003;66430;50.182;11.704;2023-07-09T00:34:40;24;24;
77365;PMS5003;66430;50.182;11.704;2023-07-09T00:37:09;24;23;
77365;PMS5003;66430;50.182;11.704;2023-07-09T00:39:31;19;19;
77365;PMS5003;66430;50.182;11.704;2023-07-09T00:41:56;21;21;
77365;PMS5003;66430;50.182;11.704;2023-07-09T00:44:25;20;18;
77365;PMS5003;66430;50.182;11.704;2023-07-09T00:49:13;24;22;
77365;PMS5003;66430;50.182;11.704;2023-07-09T00:51:40;26;26;
77365;PMS5003;66430;50.182;11.704;2023-07-09T00:54:06;26;24;
77365;PMS5003;66430;50.182;11.704;2023-07-09T00:56:29;17;17;
77365;PMS5003;66430;50.182;11.704;2023-07-09T00:58:54;21;21;
77365;PMS5003;66430;50.182;11.704;2023-07-09T01:01:20;19;18;
77365;PMS5003;66430;50.182;11.704;2023-07-09T01:03:46;17;17;
77365;PMS5003;66430;50.182;11.704;2023-07-09T01:06:10;18;18;
77365;PMS5003;66430;50.182;11.704;2023-07-09T01:08:36;15;15;
77365;PMS5003;66430;50.182;11.704;2023-07-09T01:11:01;16;16;
77365;PMS5003;66430;50.182;11.704;2023-07-09T01:13:27;16;15;
77365;PMS5003;66430;50.182;11.704;2023-07-09T01:15:52;16;16;
77365;PMS5003;66430;50.182;11.704;2023-07-09T01:18:17;19;18;
77365;PMS5003;66430;50.182;11.704;2023-07-09T01:20:43;22;22;
77365;PMS5003;66430;50.182;11.704;2023-07-09T01:23:08;17;17;
77365;PMS5003;66430;50.182;11.704;2023-07-09T01:25:33;21;21;
77365;PMS5003;66430;50.182;11.704;2023-07-09T01:27:59;16;16;
77365;PMS5003;66430;50.182;11.704;2023-07-09T01:30:27;17;17;
77365;PMS5003;66430;50.182;11.704;2023-07-09T01:32:50;24;21;
77365;PMS5003;66430;50.182;11.704;2023-07-09T01:35:17;26;26;
77365;PMS5003;66430;50.182;11.704;2023-07-09T01:37:41;16;16;
77365;PMS5003;66430;50.182;11.704;2023-07-09T01:40:07;20;18;
77365;PMS5003;66430;50.182;11.704;2023-07-09T01:42:32;19;19;
77365;PMS5003;66430;50.182;11.704;2023-07-09T01:44:56;19;19;
77365;PMS5003;66430;50.182;11.704;2023-07-09T01:47:22;22;21;
77365;PMS5003;66430;50.182;11.704;2023-07-09T01:49:47;24;24;
77365;PMS5003;66430;50.182;11.704;2023-07-09T01:52:13;21;20;
77365;PMS5003;66430;50.182;11.704;2023-07-09T01:54:39;23;21;
77365;PMS5003;66430;50.182;11.704;2023-07-09T01:57:13;19;19;
77365;PMS5003;66430;50.182;11.704;2023-07-09T01:59:29;22;22;
77365;PMS5003;66430;50.182;11.704;2023-07-09T02:01:55;21;19;
77365;PMS5003;66430;50.182;11.704;2023-07-09T02:04:20;19;19;
77365;PMS5003;66430;50.182;11.704;2023-07-09T02:06:45;17;17;
77365;PMS5003;66430;50.182;11.704;2023-07-09T02:09:10;18;18;
77365;PMS5003;66430;50.182;11.704;2023-07-09T02:11:35;18;18;
77365;PMS5003;66430;50.182;11.704;2023-07-09T02:14:01;20;20;
77365;PMS5003;66430;50.182;11.704;2023-07-09T02:16:26;23;23;
77365;PMS5003;66430;50.182;11.704;2023-07-09T02:18:52;21;21;
77365;PMS5003;66430;50.182;11.704;2023-07-09T02:21:17;19;19;
77365;PMS5003;66430;50.182;11.704;2023-07-09T02:23:42;24;24;
77365;PMS5003;66430;50.182;11.704;2023-07-09T02:26:07;24;24;
77365;PMS5003;66430;50.182;11.704;2023-07-09T02:28:32;22;22;
77365;PMS5003;66430;50.182;11.704;2023-07-09T02:30:58;23;23;
77365;PMS5003;66430;50.182;11.704;2023-07-09T02:33:23;24;22;
77365;PMS5003;66430;50.182;11.704;2023-07-09T02:35:49;22;22;
77365;PMS5003;66430;50.182;11.704;2023-07-09T02:38:14;21;21;
77365;PMS5003;66430;50.182;11.704;2023-07-09T02:40:40;24;22;
77365;PMS5003;66430;50.182;11.704;2023-07-09T02:43:05;17;17;
77365;PMS5003;66430;50.182;11.704;2023-07-09T02:45:30;15;14;
77365;PMS5003;66430;50.182;11.704;2023-07-09T02:47:56;20;19;
77365;PMS5003;66430;50.182;11.704;2023-07-09T02:50:22;19;18;
77365;PMS5003;66430;50.182;11.704;2023-07-09T02:52:46;19;18;
77365;PMS5003;66430;50.182;11.704;2023-07-09T02:55:11;19;19;
77365;PMS5003;66430;50.182;11.704;2023-07-09T02:57:37;15;14;
77365;PMS5003;66430;50.182;11.704;2023-07-09T03:00:02;18;17;
77365;PMS5003;66430;50.182;11.704;2023-07-09T03:02:28;19;17;
77365;PMS5003;66430;50.182;11.704;2023-07-09T03:04:53;17;16;
77365;PMS5003;66430;50.182;11.704;2023-07-09T03:07:18;15;15;
77365;PMS5003;66430;50.182;11.704;2023-07-09T03:09:43;20;17;
77365;PMS5003;66430;50.182;11.704;2023-07-09T03:12:09;16;15;
77365;PMS5003;66430;50.182;11.704;2023-07-09T03:14:35;18;17;
77365;PMS5003;66430;50.182;11.704;2023-07-09T03:17:00;21;19;
77365;PMS5003;66430;50.182;11.704;2023-07-09T03:19:25;17;17;
77365;PMS5003;66430;50.182;11.704;2023-07-09T03:21:50;23;21;
77365;PMS5003;66430;50.182;11.704;2023-07-09T03:24:16;16;16;
77365;PMS5003;66430;50.182;11.704;2023-07-09T03:26:41;22;22;
77365;PMS5003;66430;50.182;11.704;2023-07-09T03:29:07;17;17;
77365;PMS5003;66430;50.182;11.704;2023-07-09T03:31:32;17;16;
77365;PMS5003;66430;50.182;11.704;2023-07-09T03:33:58;19;19;
77365;PMS5003;66430;50.182;11.704;2023-07-09T03:36:23;18;16;
77365;PMS5003;66430;50.182;11.704;2023-07-09T03:38:48;18;18;
77365;PMS5003;66430;50.182;11.704;2023-07-09T03:41:13;20;20;
77365;PMS5003;66430;50.182;11.704;2023-07-09T03:43:39;20;18;
77365;PMS5003;66430;50.182;11.704;2023-07-09T03:46:04;15;15;
77365;PMS5003;66430;50.182;11.704;2023-07-09T03:48:29;16;16;
77365;PMS5003;66430;50.182;11.704;2023-07-09T03:50:54;19;19;
77365;PMS5003;66430;50.182;11.704;2023-07-09T03:53:20;19;17;
77365;PMS5003;66430;50.182;11.704;2023-07-09T03:55:46;17;17;
77365;PMS5003;66430;50.182;11.704;2023-07-09T03:58:10;17;16;
77365;PMS5003;66430;50.182;11.704;2023-07-09T04:00:36;18;16;
77365;PMS5003;66430;50.182;11.704;2023-07-09T04:03:01;18;17;
77365;PMS5003;66430;50.182;11.704;2023-07-09T04:05:27;20;18;
77365;PMS5003;66430;50.182;11.704;2023-07-09T04:07:52;16;16;
77365;PMS5003;66430;50.182;11.704;2023-07-09T04:10:17;16;16;
77365;PMS5003;66430;50.182;11.704;2023-07-09T04:12:43;24;23;
77365;PMS5003;66430;50.182;11.704;2023-07-09T04:15:08;16;16;
77365;PMS5003;66430;50.182;11.704;2023-07-09T04:17:33;17;15;
77365;PMS5003;66430;50.182;11.704;2023-07-09T04:19:58;18;16;
77365;PMS5003;66430;50.182;11.704;2023-07-09T04:22:24;20;18;
77365;PMS5003;66430;50.182;11.704;2023-07-09T04:24:50;21;21;
77365;PMS5003;66430;50.182;11.704;2023-07-09T04:27:15;15;15;
77365;PMS5003;66430;50.182;11.704;2023-07-09T04:29:40;14;14;
77365;PMS5003;66430;50.182;11.704;2023-07-09T04:32:05;20;18;
77365;PMS5003;66430;50.182;11.704;2023-07-09T04:34:31;23;21;
77365;PMS5003;66430;50.182;11.704;2023-07-09T04:36:56;16;16;
77365;PMS5003;66430;50.182;11.704;2023-07-09T04:39:22;15;14;
77365;PMS5003;66430;50.182;11.704;2023-07-09T04:41:47;24;23;
77365;PMS5003;66430;50.182;11.704;2023-07-09T04:44:17;19;19;
77365;PMS5003;66430;50.182;11.704;2023-07-09T04:46:37;15;14;
77365;PMS5003;66430;50.182;11.704;2023-07-09T04:49:03;14;14;
77365;PMS5003;66430;50.182;11.704;2023-07-09T04:51:28;21;21;
77365;PMS5003;66430;50.182;11.704;2023-07-09T04:53:55;17;15;
77365;PMS5003;66430;50.182;11.704;2023-07-09T04:56:19;15;15;
77365;PMS5003;66430;50.182;11.704;2023-07-09T04:58:44;18;18;
77365;PMS5003;66430;50.182;11.704;2023-07-09T05:01:10;18;17;
77365;PMS5003;66430;50.182;11.704;2023-07-09T05:03:35;20;19;
77365;PMS5003;66430;50.182;11.704;2023-07-09T05:06:00;16;16;
77365;PMS5003;66430;50.182;11.704;2023-07-09T05:08:25;19;17;
77365;PMS5003;66430;50.182;11.704;2023-07-09T05:10:50;18;18;
77365;PMS5003;66430;50.182;11.704;2023-07-09T05:13:15;17;17;
77365;PMS5003;66430;50.182;11.704;2023-07-09T05:15:42;19;19;
77365;PMS5003;66430;50.182;11.704;2023-07-09T05:18:06;20;20;
77365;PMS5003;66430;50.182;11.704;2023-07-09T05:20:31;18;16;
77365;PMS5003;66430;50.182;11.704;2023-07-09T05:22:56;18;18;
77365;PMS5003;66430;50.182;11.704;2023-07-09T05:25:22;18;15;
77365;PMS5003;66430;50.182;11.704;2023-07-09T05:27:49;17;15;
77365;PMS5003;66430;50.182;11.704;2023-07-09T05:30:12;17;17;
77365;PMS5003;66430;50.182;11.704;2023-07-09T05:32:38;14;13;
77365;PMS5003;66430;50.182;11.704;2023-07-09T05:35:03;16;16;
77365;PMS5003;66430;50.182;11.704;2023-07-09T05:37:28;14;14;
77365;PMS5003;66430;50.182;11.704;2023-07-09T05:39:54;15;15;
77365;PMS5003;66430;50.182;11.704;2023-07-09T05:42:19;12;12;
77365;PMS5003;66430;50.182;11.704;2023-07-09T05:44:45;19;16;
77365;PMS5003;66430;50.182;11.704;2023-07-09T05:47:10;18;16;
77365;PMS5003;66430;50.182;11.704;2023-07-09T05:49:35;18;16;
77365;PMS5003;66430;50.182;11.704;2023-07-09T05:52:01;15;15;
77365;PMS5003;66430;50.182;11.704;2023-07-09T05:54:27;20;20;
77365;PMS5003;66430;50.182;11.704;2023-07-09T05:56:53;20;20;
77365;PMS5003;66430;50.182;11.704;2023-07-09T05:59:18;17;15;
77365;PMS5003;66430;50.182;11.704;2023-07-09T06:01:43;15;14;
77365;PMS5003;66430;50.182;11.704;2023-07-09T06:04:09;16;15;
77365;PMS5003;66430;50.182;11.704;2023-07-09T06:06:35;17;16;
77365;PMS5003;66430;50.182;11.704;2023-07-09T06:09:00;11;11;
77365;PMS5003;66430;50.182;11.704;2023-07-09T06:11:25;13;13;
77365;PMS5003;66430;50.182;11.704;2023-07-09T06:13:50;15;15;
77365;PMS5003;66430;50.182;11.704;2023-07-09T06:16:16;16;14;
77365;PMS5003;66430;50.182;11.704;2023-07-09T06:18:41;13;13;
77365;PMS5003;66430;50.182;11.704;2023-07-09T06:21:07;12;12;
77365;PMS5003;66430;50.182;11.704;2023-07-09T06:23:32;10;10;
77365;PMS5003;66430;50.182;11.704;2023-07-09T06:25:57;14;13;
77365;PMS5003;66430;50.182;11.704;2023-07-09T06:28:24;12;11;
77365;PMS5003;66430;50.182;11.704;2023-07-09T06:30:49;15;13;
77365;PMS5003;66430;50.182;11.704;2023-07-09T06:33:14;16;16;
77365;PMS5003;66430;50.182;11.704;2023-07-09T06:35:45;14;13;
77365;PMS5003;66430;50.182;11.704;2023-07-09T06:38:04;13;13;
77365;PMS5003;66430;50.182;11.704;2023-07-09T06:40:30;16;15;
77365;PMS5003;66430;50.182;11.704;2023-07-09T06:42:56;14;12;
77365;PMS5003;66430;50.182;11.704;2023-07-09T06:45:21;14;14;
77365;PMS5003;66430;50.182;11.704;2023-07-09T06:47:46;16;16;
77365;PMS5003;66430;50.182;11.704;2023-07-09T06:50:11;14;13;
77365;PMS5003;66430;50.182;11.704;2023-07-09T06:52:37;15;14;
77365;PMS5003;66430;50.182;11.704;2023-07-09T06:55:02;15;15;
77365;PMS5003;66430;50.182;11.704;2023-07-09T06:57:27;17;17;
77365;PMS5003;66430;50.182;11.704;2023-07-09T06:59:53;15;15;
77365;PMS5003;66430;50.182;11.704;2023-07-09T07:02:18;17;17;
77365;PMS5003;66430;50.182;11.704;2023-07-09T07:04:43;17;17;
77365;PMS5003;66430;50.182;11.704;2023-07-09T07:07:09;15;15;
77365;PMS5003;66430;50.182;11.704;2023-07-09T07:09:34;16;15;
77365;PMS5003;66430;50.182;11.704;2023-07-09T07:12:00;14;14;
77365;PMS5003;66430;50.182;11.704;2023-07-09T07:14:25;16;15;
77365;PMS5003;66430;50.182;11.704;2023-07-09T07:16:50;19;18;
77365;PMS5003;66430;50.182;11.704;2023-07-09T07:19:16;17;17;
77365;PMS5003;66430;50.182;11.704;2023-07-09T07:21:42;15;14;
77365;PMS5003;66430;50.182;11.704;2023-07-09T07:24:07;15;15;
77365;PMS5003;66430;50.182;11.704;2023-07-09T07:26:32;15;14;
77365;PMS5003;66430;50.182;11.704;2023-07-09T07:28:57;19;16;
77365;PMS5003;66430;50.182;11.704;2023-07-09T07:31:22;17;17;
77365;PMS5003;66430;50.182;11.704;2023-07-09T07:33:48;17;15;
77365;PMS5003;66430;50.182;11.704;2023-07-09T07:36:13;15;14;
77365;PMS5003;66430;50.182;11.704;2023-07-09T07:38:38;15;13;
77365;PMS5003;66430;50.182;11.704;2023-07-09T07:41:04;16;15;
77365;PMS5003;66430;50.182;11.704;2023-07-09T07:43:30;16;13;
77365;PMS5003;66430;50.182;11.704;2023-07-09T07:45:55;13;13;
77365;PMS5003;66430;50.182;11.704;2023-07-09T07:48:21;13;13;
77365;PMS5003;66430;50.182;11.704;2023-07-09T07:50:46;14;14;
77365;PMS5003;66430;50.182;11.704;2023-07-09T07:53:11;13;12;
77365;PMS5003;66430;50.182;11.704;2023-07-09T07:55:36;16;14;
77365;PMS5003;66430;50.182;11.704;2023-07-09T07:58:02;11;11;
77365;PMS5003;66430;50.182;11.704;2023-07-09T08:00:28;14;13;
77365;PMS5003;66430;50.182;11.704;2023-07-09T08:02:53;14;13;
77365;PMS5003;66430;50.182;11.704;2023-07-09T08:05:18;14;14;
77365;PMS5003;66430;50.182;11.704;2023-07-09T08:07:43;14;14;
77365;PMS5003;66430;50.182;11.704;2023-07-09T08:10:08;13;13;
77365;PMS5003;66430;50.182;11.704;2023-07-09T08:12:34;12;11;
77365;PMS5003;66430;50.182;11.704;2023-07-09T08:15:00;14;12;
77365;PMS5003;66430;50.182;11.704;2023-07-09T08:17:25;14;11;
77365;PMS5003;66430;50.182;11.704;2023-07-09T08:19:51;9;9;
77365;PMS5003;66430;50.182;11.704;2023-07-09T08:22:16;7;7;
77365;PMS5003;66430;50.182;11.704;2023-07-09T08:24:40;13;10;
77365;PMS5003;66430;50.182;11.704;2023-07-09T08:27:06;13;11;
77365;PMS5003;66430;50.182;11.704;2023-07-09T08:29:31;11;11;
77365;PMS5003;66430;50.182;11.704;2023-07-09T08:31:57;10;10;
77365;PMS5003;66430;50.182;11.704;2023-07-09T08:34:22;15;13;
77365;PMS5003;66430;50.182;11.704;2023-07-09T08:36:47;11;10;
77365;PMS5003;66430;50.182;11.704;2023-07-09T08:39:12;12;10;
77365;PMS5003;66430;50.182;11.704;2023-07-09T08:41:39;8;8;
77365;PMS5003;66430;50.182;11.704;2023-07-09T08:44:06;8;8;
77365;PMS5003;66430;50.182;11.704;2023-07-09T08:46:30;10;10;
77365;PMS5003;66430;50.182;11.704;2023-07-09T08:48:53;12;11;
77365;PMS5003;66430;50.182;11.704;2023-07-09T08:51:19;11;10;
77365;PMS5003;66430;50.182;11.704;2023-07-09T08:53:45;10;9;
77365;PMS5003;66430;50.182;11.704;2023-07-09T08:56:09;10;10;
77365;PMS5003;66430;50.182;11.704;2023-07-09T08:58:35;10;10;
77365;PMS5003;66430;50.182;11.704;2023-07-09T09:01:01;12;9;
77365;PMS5003;66430;50.182;11.704;2023-07-09T09:03:28;13;11;
77365;PMS5003;66430;50.182;11.704;2023-07-09T09:05:51;12;10;
77365;PMS5003;66430;50.182;11.704;2023-07-09T09:08:19;10;9;
77365;PMS5003;66430;50.182;11.704;2023-07-09T09:10:43;12;10;
77365;PMS5003;66430;50.182;11.704;2023-07-09T09:13:09;12;12;
77365;PMS5003;66430;50.182;11.704;2023-07-09T09:15:32;11;11;
77365;PMS5003;66430;50.182;11.704;2023-07-09T09:18:19;14;13;
77365;PMS5003;66430;50.182;11.704;2023-07-09T09:20:23;17;17;
77365;PMS5003;66430;50.182;11.704;2023-07-09T09:22:50;11;9;
77365;PMS5003;66430;50.182;11.704;2023-07-09T09:25:17;11;10;
77365;PMS5003;66430;50.182;11.704;2023-07-09T09:27:39;12;11;
77365;PMS5003;66430;50.182;11.704;2023-07-09T09:30:08;12;12;
77365;PMS5003;66430;50.182;11.704;2023-07-09T09:32:34;11;11;
77365;PMS5003;66430;50.182;11.704;2023-07-09T09:34:56;10;10;
77365;PMS5003;66430;50.182;11.704;2023-07-09T09:37:24;10;10;
77365;PMS5003;66430;50.182;11.704;2023-07-09T09:39:46;10;10;
77365;PMS5003;66430;50.182;11.704;2023-07-09T09:42:12;10;10;
77365;PMS5003;66430;50.182;11.704;2023-07-09T09:44:42;9;9;
77365;PMS5003;66430;50.182;11.704;2023-07-09T09:47:03;10;10;
77365;PMS5003;66430;50.182;11.704;2023-07-09T09:49:28;14;14;
77365;PMS5003;66430;50.182;11.704;2023-07-09T09:51:53;12;12;
77365;PMS5003;66430;50.182;11.704;2023-07-09T09:54:20;11;11;
77365;PMS5003;66430;50.182;11.704;2023-07-09T09:56:44;10;9;
77365;PMS5003;66430;50.182;11.704;2023-07-09T09:59:13;9;8;
77365;PMS5003;66430;50.182;11.704;2023-07-09T10:01:35;14;13;
77365;PMS5003;66430;50.182;11.704;2023-07-09T10:04:02;11;10;
77365;PMS5003;66430;50.182;11.704;2023-07-09T10:06:29;14;12;
77365;PMS5003;66430;50.182;11.704;2023-07-09T10:08:54;8;8;
77365;PMS5003;66430;50.182;11.704;2023-07-09T10:11:18;9;9;
77365;PMS5003;66430;50.182;11.704;2023-07-09T10:13:48;11;10;
77365;PMS5003;66430;50.182;11.704;2023-07-09T10:16:09;11;10;
77365;PMS5003;66430;50.182;11.704;2023-07-09T10:18:37;11;10;
77365;PMS5003;66430;50.182;11.704;2023-07-09T10:21:01;15;10;
77365;PMS5003;66430;50.182;11.704;2023-07-09T10:23:25;8;8;
77365;PMS5003;66430;50.182;11.704;2023-07-09T10:25:51;10;10;
77365;PMS5003;66430;50.182;11.704;2023-07-09T10:28:19;8;8;
77365;PMS5003;66430;50.182;11.704;2023-07-09T10:30:43;10;10;
77365;PMS5003;66430;50.182;11.704;2023-07-09T10:33:07;10;10;
77365;PMS5003;66430;50.182;11.704;2023-07-09T10:35:32;11;10;
77365;PMS5003;66430;50.182;11.704;2023-07-09T10:37:59;12;10;
77365;PMS5003;66430;50.182;11.704;2023-07-09T10:40:23;9;9;
77365;PMS5003;66430;50.182;11.704;2023-07-09T10:42:46;8;8;
77365;PMS5003;66430;50.182;11.704;2023-07-09T10:45:11;8;8;
77365;PMS5003;66430;50.182;11.704;2023-07-09T10:47:36;9;9;
77365;PMS5003;66430;50.182;11.704;2023-07-09T10:50:02;10;9;
77365;PMS5003;66430;50.182;11.704;2023-07-09T10:52:28;11;9;
77365;PMS5003;66430;50.182;11.704;2023-07-09T10:54:54;7;7;
77365;PMS5003;66430;50.182;11.704;2023-07-09T10:57:18;7;7;
77365;PMS5003;66430;50.182;11.704;2023-07-09T10:59:43;14;14;
77365;PMS5003;66430;50.182;11.704;2023-07-09T11:02:13;8;8;
77365;PMS5003;66430;50.182;11.704;2023-07-09T11:04:35;7;7;
77365;PMS5003;66430;50.182;11.704;2023-07-09T11:06:59;10;9;
77365;PMS5003;66430;50.182;11.704;2023-07-09T11:09:24;10;8;
77365;PMS5003;66430;50.182;11.704;2023-07-09T11:11:49;9;9;
77365;PMS5003;66430;50.182;11.704;2023-07-09T11:14:19;12;10;
77365;PMS5003;66430;50.182;11.704;2023-07-09T11:16:40;11;10;
77365;PMS5003;66430;50.182;11.704;2023-07-09T11:19:05;10;10;
77365;PMS5003;66430;50.182;11.704;2023-07-09T11:21:30;10;10;
77365;PMS5003;66430;50.182;11.704;2023-07-09T11:23:56;13;13;
77365;PMS5003;66430;50.182;11.704;2023-07-09T11:26:22;13;10;
77365;PMS5003;66430;50.182;11.704;2023-07-09T11:28:47;11;10;
77365;PMS5003;66430;50.182;11.704;2023-07-09T11:31:16;11;10;
77365;PMS5003;66430;50.182;11.704;2023-07-09T11:36:06;12;12;
77365;PMS5003;66430;50.182;11.704;2023-07-09T11:38:27;12;10;
77365;PMS5003;66430;50.182;11.704;2023-07-09T11:40:53;15;12;
77365;PMS5003;66430;50.182;11.704;2023-07-09T11:43:26;11;11;
77365;PMS5003;66430;50.182;11.704;2023-07-09T11:45:43;9;9;
77365;PMS5003;66430;50.182;11.704;2023-07-09T11:48:13;14;12;
77365;PMS5003;66430;50.182;11.704;2023-07-09T11:50:35;12;12;
77365;PMS5003;66430;50.182;11.704;2023-07-09T11:53:00;11;11;
77365;PMS5003;66430;50.182;11.704;2023-07-09T11:55:26;8;8;
77365;PMS5003;66430;50.182;11.704;2023-07-09T11:57:52;11;11;
77365;PMS5003;66430;50.182;11.704;2023-07-09T12:00:15;10;10;
77365;PMS5003;66430;50.182;11.704;2023-07-09T12:02:40;8;8;
77365;PMS5003;66430;50.182;11.704;2023-07-09T12:05:06;12;12;
77365;PMS5003;66430;50.182;11.704;2023-07-09T12:07:31;13;13;
77365;PMS5003;66430;50.182;11.704;2023-07-09T12:09:56;11;11;
77365;PMS5003;66430;50.182;11.704;2023-07-09T12:12:22;8;8;
77365;PMS5003;66430;50.182;11.704;2023-07-09T12:14:46;12;12;
77365;PMS5003;66430;50.182;11.704;2023-07-09T12:17:12;17;14;
77365;PMS5003;66430;50.182;11.704;2023-07-09T12:19:37;13;13;
77365;PMS5003;66430;50.182;11.704;2023-07-09T12:22:05;12;11;
77365;PMS5003;66430;50.182;11.704;2023-07-09T12:24:28;13;12;
77365;PMS5003;66430;50.182;11.704;2023-07-09T12:26:53;11;11;
77365;PMS5003;66430;50.182;11.704;2023-07-09T12:29:18;15;13;
77365;PMS5003;66430;50.182;11.704;2023-07-09T12:31:44;12;12;
77365;PMS5003;66430;50.182;11.704;2023-07-09T12:34:10;12;11;
77365;PMS5003;66430;50.182;11.704;2023-07-09T12:36:35;13;13;
77365;PMS5003;66430;50.182;11.704;2023-07-09T12:39:00;16;13;
77365;PMS5003;66430;50.182;11.704;2023-07-09T12:41:28;14;13;
77365;PMS5003;66430;50.182;11.704;2023-07-09T12:43:51;13;12;
77365;PMS5003;66430;50.182;11.704;2023-07-09T12:46:16;12;12;
77365;PMS5003;66430;50.182;11.704;2023-07-09T12:48:41;11;11;
77365;PMS5003;66430;50.182;11.704;2023-07-09T12:51:07;11;11;
77365;PMS5003;66430;50.182;11.704;2023-07-09T12:53:32;12;11;
77365;PMS5003;66430;50.182;11.704;2023-07-09T12:55:58;14;13;
77365;PMS5003;66430;50.182;11.704;2023-07-09T12:58:23;15;15;
77365;PMS5003;66430;50.182;11.704;2023-07-09T13:00:49;13;13;
77365;PMS5003;66430;50.182;11.704;2023-07-09T13:03:13;12;12;
77365;PMS5003;66430;50.182;11.704;2023-07-09T13:05:39;11;11;
77365;PMS5003;66430;50.182;11.704;2023-07-09T13:08:04;14;12;
77365;PMS5003;66430;50.182;11.704;2023-07-09T13:10:29;9;9;
77365;PMS5003;66430;50.182;11.704;2023-07-09T13:12:55;15;12;
77365;PMS5003;66430;50.182;11.704;2023-07-09T13:15:24;14;13;
77365;PMS5003;66430;50.182;11.704;2023-07-09T13:17:45;13;11;
77365;PMS5003;66430;50.182;11.704;2023-07-09T13:20:10;13;12;
77365;PMS5003;66430;50.182;11.704;2023-07-09T13:22:35;11;11;
77365;PMS5003;66430;50.182;11.704;2023-07-09T13:25:00;12;12;
77365;PMS5003;66430;50.182;11.704;2023-07-09T13:27:26;13;13;
77365;PMS5003;66430;50.182;11.704;2023-07-09T13:29:51;13;11;
77365;PMS5003;66430;50.182;11.704;2023-07-09T13:32:17;13;12;
77365;PMS5003;66430;50.182;11.704;2023-07-09T13:34:42;16;15;
77365;PMS5003;66430;50.182;11.704;2023-07-09T13:37:09;13;13;
77365;PMS5003;66430;50.182;11.704;2023-07-09T13:39:32;11;11;
77365;PMS5003;66430;50.182;11.704;2023-07-09T13:41:58;14;13;
77365;PMS5003;66430;50.182;11.704;2023-07-09T13:44:25;12;12;
77365;PMS5003;66430;50.182;11.704;2023-07-09T13:46:49;15;14;
77365;PMS5003;66430;50.182;11.704;2023-07-09T13:49:15;12;12;
77365;PMS5003;66430;50.182;11.704;2023-07-09T13:51:40;14;13;
77365;PMS5003;66430;50.182;11.704;2023-07-09T13:54:09;14;13;
77365;PMS5003;66430;50.182;11.704;2023-07-09T13:56:31;13;13;
77365;PMS5003;66430;50.182;11.704;2023-07-09T13:58:56;15;11;
77365;PMS5003;66430;50.182;11.704;2023-07-09T14:01:22;15;13;
77365;PMS5003;66430;50.182;11.704;2023-07-09T14:03:47;12;11;
77365;PMS5003;66430;50.182;11.704;2023-07-09T14:06:13;14;14;
77365;PMS5003;66430;50.182;11.704;2023-07-09T14:08:38;12;12;
77365;PMS5003;66430;50.182;11.704;2023-07-09T14:11:07;13;13;
77365;PMS5003;66430;50.182;11.704;2023-07-09T14:13:28;11;11;
77365;PMS5003;66430;50.182;11.704;2023-07-09T14:15:54;15;12;
77365;PMS5003;66430;50.182;11.704;2023-07-09T14:18:20;12;12;
77365;PMS5003;66430;50.182;11.704;2023-07-09T14:20:45;12;11;
77365;PMS5003;66430;50.182;11.704;2023-07-09T14:23:11;13;13;
77365;PMS5003;66430;50.182;11.704;2023-07-09T14:25:35;15;15;
77365;PMS5003;66430;50.182;11.704;2023-07-09T14:28:01;14;14;
77365;PMS5003;66430;50.182;11.704;2023-07-09T14:30:27;11;11;
77365;PMS5003;66430;50.182;11.704;2023-07-09T14:32:51;13;13;
77365;PMS5003;66430;50.182;11.704;2023-07-09T14:35:17;12;12;
77365;PMS5003;66430;50.182;11.704;2023-07-09T14:37:43;12;12;
77365;PMS5003;66430;50.182;11.704;2023-07-09T14:40:08;18;15;
77365;PMS5003;66430;50.182;11.704;2023-07-09T14:42:33;11;9;
77365;PMS5003;66430;50.182;11.704;2023-07-09T14:44:58;14;11;
77365;PMS5003;66430;50.182;11.704;2023-07-09T14:47:23;10;10;
77365;PMS5003;66430;50.182;11.704;2023-07-09T14:49:50;14;12;
77365;PMS5003;66430;50.182;11.704;2023-07-09T14:52:15;17;16;
77365;PMS5003;66430;50.182;11.704;2023-07-09T14:54:40;12;12;
77365;PMS5003;66430;50.182;11.704;2023-07-09T14:57:08;16;13;
77365;PMS5003;66430;50.182;11.704;2023-07-09T14:59:30;11;11;
77365;PMS5003;66430;50.182;11.704;2023-07-09T15:02:00;11;10;
77365;PMS5003;66430;50.182;11.704;2023-07-09T15:04:25;15;15;
77365;PMS5003;66430;50.182;11.704;2023-07-09T15:06:47;10;10;
77365;PMS5003;66430;50.182;11.704;2023-07-09T15:09:12;15;14;
77365;PMS5003;66430;50.182;11.704;2023-07-09T15:11:37;11;9;
77365;PMS5003;66430;50.182;11.704;2023-07-09T15:14:02;11;10;
77365;PMS5003;66430;50.182;11.704;2023-07-09T15:16:28;12;12;
77365;PMS5003;66430;50.182;11.704;2023-07-09T15:18:53;10;9;
77365;PMS5003;66430;50.182;11.704;2023-07-09T15:21:19;13;12;
77365;PMS5003;66430;50.182;11.704;2023-07-09T15:23:44;10;10;
77365;PMS5003;66430;50.182;11.704;2023-07-09T15:26:12;11;11;
77365;PMS5003;66430;50.182;11.704;2023-07-09T15:28:35;11;11;
77365;PMS5003;66430;50.182;11.704;2023-07-09T15:31:00;10;10;
77365;PMS5003;66430;50.182;11.704;2023-07-09T15:33:25;9;9;
77365;PMS5003;66430;50.182;11.704;2023-07-09T15:35:50;14;12;
77365;PMS5003;66430;50.182;11.704;2023-07-09T15:38:26;12;10;
77365;PMS5003;66430;50.182;11.704;2023-07-09T15:40:41;16;12;
77365;PMS5003;66430;50.182;11.704;2023-07-09T15:43:07;11;11;
77365;PMS5003;66430;50.182;11.704;2023-07-09T15:45:31;10;10;
77365;PMS5003;66430;50.182;11.704;2023-07-09T15:47:57;10;9;
77365;PMS5003;66430;50.182;11.704;2023-07-09T15:50:23;10;10;
77365;PMS5003;66430;50.182;11.704;2023-07-09T15:52:47;12;10;
77365;PMS5003;66430;50.182;11.704;2023-07-09T15:55:13;11;11;